createdAt,value
2022-12-08T00:01:29.853Z,3.70
2022-12-08T00:03:59.080Z,3.60
2022-12-08T00:06:54.270Z,3.60
2022-12-08T00:09:24.133Z,3.50
2022-12-08T00:12:03.443Z,3.50
2022-12-08T00:14:50.019Z,3.50
2022-12-08T00:17:17.769Z,3.50
2022-12-08T00:19:45.108Z,3.50
2022-12-08T00:22:13.349Z,3.50
2022-12-08T00:24:41.518Z,3.50
2022-12-08T00:27:10.608Z,3.50
2022-12-08T00:29:37.824Z,3.60
2022-12-08T00:32:06.982Z,3.60
2022-12-08T00:34:34.511Z,3.60
2022-12-08T00:37:01.634Z,3.50
2022-12-08T00:39:28.741Z,3.50
2022-12-08T00:42:13.789Z,3.50
2022-12-08T00:44:42.694Z,3.50
2022-12-08T00:47:12.575Z,3.50
2022-12-08T00:49:39.936Z,3.50
2022-12-08T00:52:06.988Z,3.50
2022-12-08T00:54:34.343Z,3.50
2022-12-08T00:57:01.394Z,3.50
2022-12-08T00:59:28.421Z,3.50
2022-12-08T01:01:55.563Z,3.40
2022-12-08T01:04:22.783Z,3.40
2022-12-08T01:06:49.990Z,3.40
2022-12-08T01:09:18.351Z,3.40
2022-12-08T01:11:45.797Z,3.40
2022-12-08T01:14:13.987Z,3.40
2022-12-08T01:16:41.926Z,3.40
2022-12-08T01:19:14.354Z,3.40
2022-12-08T01:21:42.387Z,3.40
2022-12-08T01:24:18.657Z,3.40
2022-12-08T01:26:46.565Z,3.40
2022-12-08T01:29:14.245Z,3.40
2022-12-08T01:31:41.450Z,3.50
2022-12-08T01:34:08.882Z,3.50
2022-12-08T01:36:37.351Z,3.50
2022-12-08T01:39:11.183Z,3.50
2022-12-08T01:41:39.155Z,3.50
2022-12-08T01:44:10.599Z,3.50
2022-12-08T01:46:43.083Z,3.50
2022-12-08T01:49:25.462Z,3.50
2022-12-08T01:52:00.536Z,3.60
2022-12-08T01:54:31.846Z,3.60
2022-12-08T01:57:10.316Z,3.60
2022-12-08T01:59:43.952Z,3.60
2022-12-08T02:02:12.742Z,3.60
2022-12-08T02:04:40.387Z,3.60
2022-12-08T02:07:10.130Z,3.60
2022-12-08T02:09:37.604Z,3.60
2022-12-08T02:12:04.904Z,3.60
2022-12-08T02:14:32.393Z,3.60
2022-12-08T02:17:39.401Z,3.60
2022-12-08T02:20:26.554Z,3.70
2022-12-08T02:23:18.016Z,3.70
2022-12-08T02:25:57.911Z,3.70
2022-12-08T02:28:33.895Z,3.80
2022-12-08T02:31:22.815Z,3.80
2022-12-08T02:34:12.929Z,3.80
2022-12-08T02:36:47.020Z,3.80
2022-12-08T02:39:39.430Z,3.70
2022-12-08T02:42:21.520Z,3.60
2022-12-08T02:45:11.496Z,3.50
2022-12-08T02:47:39.262Z,3.40
2022-12-08T02:50:07.514Z,3.40
2022-12-08T02:52:35.885Z,3.30
2022-12-08T02:55:09.488Z,3.30
2022-12-08T02:57:40.308Z,3.30
2022-12-08T03:00:18.348Z,3.30
2022-12-08T03:02:54.263Z,3.30
2022-12-08T03:05:36.298Z,3.30
2022-12-08T03:08:20.228Z,3.20
2022-12-08T03:11:11.669Z,3.20
2022-12-08T03:13:47.744Z,3.20
2022-12-08T03:16:18.928Z,3.20
2022-12-08T03:18:49.795Z,3.20
2022-12-08T03:21:19.402Z,3.20
2022-12-08T03:23:48.398Z,3.20
2022-12-08T03:26:22.586Z,3.30
2022-12-08T03:28:49.666Z,3.30
2022-12-08T03:31:19.430Z,3.30
2022-12-08T03:33:52.145Z,3.30
2022-12-08T03:36:20.194Z,3.30
2022-12-08T03:38:52.939Z,3.40
2022-12-08T03:41:21.586Z,3.40
2022-12-08T03:43:52.025Z,3.40
2022-12-08T03:48:47.891Z,3.40
2022-12-08T03:51:15.404Z,3.40
2022-12-08T03:53:42.854Z,3.40
2022-12-08T03:56:35.146Z,3.30
2022-12-08T03:59:02.971Z,3.30
2022-12-08T04:01:30.297Z,3.30
2022-12-08T04:03:57.321Z,3.20
2022-12-08T04:06:24.532Z,3.20
2022-12-08T04:08:52.276Z,3.20
2022-12-08T04:11:20.477Z,3.20
2022-12-08T04:13:47.625Z,3.20
2022-12-08T04:16:21.667Z,3.20
2022-12-08T04:18:48.967Z,3.20
2022-12-08T04:21:16.736Z,3.20
2022-12-08T04:23:44.193Z,3.20
2022-12-08T04:26:11.403Z,3.20
2022-12-08T04:28:38.629Z,3.20
2022-12-08T04:31:06.580Z,3.20
2022-12-08T04:33:35.235Z,3.20
2022-12-08T04:36:06.077Z,3.20
2022-12-08T04:38:36.036Z,3.20
2022-12-08T04:41:03.291Z,3.30
2022-12-08T04:43:30.288Z,3.30
2022-12-08T04:45:57.246Z,3.30
2022-12-08T04:48:24.377Z,3.30
2022-12-08T04:50:51.739Z,3.30
2022-12-08T04:53:19.819Z,3.30
2022-12-08T04:55:48.753Z,3.40
2022-12-08T04:58:18.777Z,3.40
2022-12-08T05:00:46.911Z,3.40
2022-12-08T05:03:14.448Z,3.40
2022-12-08T05:05:42.273Z,3.40
2022-12-08T05:08:11.030Z,3.40
2022-12-08T05:10:39.028Z,3.40
2022-12-08T05:13:06.352Z,3.40
2022-12-08T05:15:33.530Z,3.40
2022-12-08T05:18:00.742Z,3.30
2022-12-08T05:20:28.207Z,3.30
2022-12-08T05:22:55.429Z,3.30
2022-12-08T05:25:23.073Z,3.30
2022-12-08T05:27:50.550Z,3.30
2022-12-08T05:30:20.755Z,3.30
2022-12-08T05:32:48.389Z,3.30
2022-12-08T05:35:15.535Z,3.30
2022-12-08T05:37:42.521Z,3.30
2022-12-08T05:40:10.042Z,3.30
2022-12-08T05:42:37.735Z,3.20
2022-12-08T05:45:05.596Z,3.20
2022-12-08T05:47:36.018Z,3.20
2022-12-08T05:50:04.031Z,3.10
2022-12-08T05:52:32.337Z,3.10
2022-12-08T05:54:59.215Z,3.10
2022-12-08T05:57:26.218Z,3.00
2022-12-08T05:59:53.142Z,3.00
2022-12-08T06:02:20.889Z,3.00
2022-12-08T06:04:48.591Z,3.00
2022-12-08T06:07:16.266Z,2.90
2022-12-08T06:09:43.738Z,3.00
2022-12-08T06:12:14.093Z,2.90
2022-12-08T06:14:41.418Z,3.00
2022-12-08T06:17:08.584Z,2.90
2022-12-08T06:19:35.678Z,2.90
2022-12-08T06:22:02.750Z,3.00
2022-12-08T06:24:29.974Z,2.90
2022-12-08T06:26:57.036Z,2.90
2022-12-08T06:29:24.163Z,2.90
2022-12-08T06:31:53.037Z,2.80
2022-12-08T06:34:19.991Z,2.80
2022-12-08T06:36:46.946Z,2.80
2022-12-08T06:39:14.207Z,2.80
2022-12-08T06:42:00.967Z,2.80
2022-12-08T06:44:27.956Z,2.70
2022-12-08T06:46:55.006Z,2.80
2022-12-08T06:49:22.118Z,2.70
2022-12-08T06:51:49.240Z,2.60
2022-12-08T06:54:16.654Z,2.60
2022-12-08T06:56:44.006Z,2.60
2022-12-08T06:59:11.078Z,2.60
2022-12-08T07:01:39.532Z,2.60
2022-12-08T07:04:06.610Z,2.60
2022-12-08T07:06:33.617Z,2.60
2022-12-08T07:09:00.813Z,2.60
2022-12-08T07:11:27.851Z,2.50
2022-12-08T07:13:57.430Z,2.50
2022-12-08T07:16:25.346Z,2.40
2022-12-08T07:18:53.069Z,2.40
2022-12-08T07:21:21.427Z,2.40
2022-12-08T07:23:54.397Z,2.30
2022-12-08T07:26:25.086Z,2.30
2022-12-08T07:28:52.444Z,2.30
2022-12-08T07:31:25.291Z,2.30
2022-12-08T07:33:53.092Z,2.30
2022-12-08T07:36:21.439Z,2.20
2022-12-08T07:38:49.245Z,2.20
2022-12-08T07:41:18.748Z,2.20
2022-12-08T07:43:46.236Z,2.20
2022-12-08T07:46:17.607Z,2.20
2022-12-08T07:48:45.093Z,2.20
2022-12-08T07:51:14.486Z,2.10
2022-12-08T07:53:44.550Z,2.10
2022-12-08T07:56:15.271Z,2.10
2022-12-08T07:58:43.032Z,2.10
2022-12-08T08:01:23.359Z,2.10
2022-12-08T08:03:50.695Z,2.10
2022-12-08T08:06:17.774Z,2.10
2022-12-08T08:08:44.996Z,2.10
2022-12-08T08:11:18.923Z,2.10
2022-12-08T08:13:47.991Z,2.10
2022-12-08T08:16:15.081Z,2.10
2022-12-08T08:18:42.396Z,2.10
2022-12-08T08:23:57.628Z,2.10
2022-12-08T08:26:24.816Z,2.10
2022-12-08T08:28:51.895Z,2.20
2022-12-08T08:31:24.228Z,2.20
2022-12-08T08:33:51.396Z,2.40
2022-12-08T08:36:18.741Z,2.50
2022-12-08T08:38:45.874Z,2.70
2022-12-08T08:41:12.974Z,2.70
2022-12-08T08:43:40.240Z,2.80
2022-12-08T08:46:09.076Z,2.80
2022-12-08T08:48:36.355Z,2.80
2022-12-08T08:51:11.187Z,2.90
2022-12-08T08:53:38.360Z,2.90
2022-12-08T08:56:10.537Z,2.90
2022-12-08T08:58:37.558Z,2.90
2022-12-08T09:01:04.660Z,2.90
2022-12-08T09:03:31.780Z,2.90
2022-12-08T09:05:59.419Z,2.90
2022-12-08T09:08:26.924Z,3.00
2022-12-08T09:10:54.664Z,3.10
2022-12-08T09:13:22.338Z,3.40
2022-12-08T09:15:49.917Z,4.30
2022-12-08T09:18:16.950Z,5.40
2022-12-08T09:20:44.326Z,5.90
2022-12-08T09:23:11.340Z,6.10
2022-12-08T09:25:45.266Z,6.00
2022-12-08T09:28:13.004Z,6.00
2022-12-08T09:30:41.573Z,5.70
2022-12-08T09:33:09.555Z,5.30
2022-12-08T09:35:36.765Z,5.00
2022-12-08T09:38:03.851Z,4.80
2022-12-08T09:40:42.673Z,4.60
2022-12-08T09:43:24.535Z,4.40
2022-12-08T09:45:52.211Z,4.20
2022-12-08T09:48:24.332Z,4.10
2022-12-08T09:50:58.343Z,4.10
2022-12-08T09:53:57.684Z,4.00
2022-12-08T09:56:33.235Z,3.90
2022-12-08T09:59:17.053Z,3.90
2022-12-08T10:01:44.170Z,3.90
2022-12-08T10:04:23.674Z,3.90
2022-12-08T10:07:15.717Z,4.00
2022-12-08T10:09:51.662Z,4.00
2022-12-08T10:12:27.549Z,4.10
2022-12-08T10:15:08.941Z,4.10
2022-12-08T10:17:40.966Z,4.20
2022-12-08T10:20:20.873Z,4.20
2022-12-08T10:22:55.659Z,4.20
2022-12-08T10:25:44.884Z,4.20
2022-12-08T10:28:12.949Z,4.90
2022-12-08T10:30:40.263Z,5.60
2022-12-08T10:33:17.920Z,5.60
2022-12-08T10:35:44.838Z,5.30
2022-12-08T10:38:26.093Z,5.00
2022-12-08T10:40:56.988Z,4.80
2022-12-08T10:43:27.953Z,4.70
2022-12-08T10:45:55.008Z,4.80
2022-12-08T10:48:27.055Z,4.80
2022-12-08T10:50:57.266Z,4.80
2022-12-08T10:53:29.935Z,5.00
2022-12-08T10:56:07.926Z,5.20
2022-12-08T10:58:43.826Z,5.50
2022-12-08T11:01:30.234Z,5.80
2022-12-08T11:04:00.374Z,6.10
2022-12-08T11:06:36.340Z,6.30
2022-12-08T11:09:17.390Z,6.30
2022-12-08T11:11:58.840Z,6.10
2022-12-08T11:15:01.520Z,5.90
2022-12-08T11:17:39.743Z,5.80
2022-12-08T11:20:10.953Z,5.70
2022-12-08T11:22:39.736Z,5.60
2022-12-08T11:25:13.463Z,5.60
2022-12-08T11:27:44.481Z,5.70
2022-12-08T11:30:20.828Z,5.70
2022-12-08T11:33:00.276Z,5.70
2022-12-08T11:35:31.946Z,5.90
2022-12-08T11:38:20.617Z,6.30
2022-12-08T11:40:52.467Z,7.00
2022-12-08T11:43:29.249Z,7.80
2022-12-08T11:46:01.594Z,8.40
2022-12-08T11:48:58.974Z,8.70
2022-12-08T11:52:28.212Z,8.50
2022-12-08T11:55:01.366Z,8.00
2022-12-08T11:57:30.231Z,7.40
2022-12-08T11:59:58.991Z,7.10
2022-12-08T12:02:29.889Z,6.70
2022-12-08T12:06:08.614Z,6.20
2022-12-08T12:09:02.485Z,5.90
2022-12-08T12:12:11.133Z,5.80
2022-12-08T12:14:47.258Z,5.70
2022-12-08T12:17:42.684Z,5.90
2022-12-08T12:20:27.804Z,6.00
2022-12-08T12:23:40.265Z,6.10
2022-12-08T12:26:10.537Z,6.20
2022-12-08T12:28:43.576Z,7.30
2022-12-08T12:31:32.387Z,9.00
2022-12-08T12:34:23.697Z,10.60
2022-12-08T12:36:57.822Z,12.20
2022-12-08T12:39:31.311Z,13.00
2022-12-08T12:42:02.401Z,13.40
2022-12-08T12:44:29.489Z,13.80
2022-12-08T12:47:00.084Z,13.80
2022-12-08T12:49:39.676Z,13.80
2022-12-08T12:52:16.042Z,13.90
2022-12-08T12:55:04.180Z,14.10
2022-12-08T12:57:56.407Z,14.30
2022-12-08T13:00:26.757Z,14.40
2022-12-08T13:02:56.670Z,14.70
2022-12-08T13:05:30.468Z,14.80
2022-12-08T13:08:07.154Z,14.70
2022-12-08T13:10:34.124Z,14.30
2022-12-08T13:13:10.811Z,13.00
2022-12-08T13:15:49.722Z,11.70
2022-12-08T13:18:38.618Z,11.20
2022-12-08T13:21:11.543Z,11.10
2022-12-08T13:23:40.914Z,11.00
2022-12-08T13:26:28.137Z,10.70
2022-12-08T13:29:06.332Z,10.00
2022-12-08T13:31:45.244Z,9.40
2022-12-08T13:34:29.830Z,8.80
2022-12-08T13:37:08.474Z,8.30
2022-12-08T13:39:41.506Z,7.80
2022-12-08T13:42:25.032Z,7.50
2022-12-08T13:45:24.159Z,7.30
2022-12-08T13:48:30.179Z,7.00
2022-12-08T13:55:26.850Z,6.80
2022-12-08T13:57:37.565Z,6.70
2022-12-08T14:00:17.162Z,6.70
2022-12-08T14:02:48.834Z,6.60
2022-12-08T14:05:19.793Z,6.40
2022-12-08T14:07:49.992Z,6.20
2022-12-08T14:10:22.191Z,6.10
2022-12-08T14:12:56.618Z,6.00
2022-12-08T14:15:26.037Z,5.80
2022-12-08T14:17:57.546Z,5.80
2022-12-08T14:20:33.846Z,5.70
2022-12-08T14:23:10.680Z,5.50
2022-12-08T14:25:38.790Z,5.40
2022-12-08T14:28:06.027Z,5.40
2022-12-08T14:30:34.631Z,5.20
2022-12-08T14:33:04.114Z,5.20
2022-12-08T14:35:39.456Z,5.10
2022-12-08T14:38:17.362Z,5.00
2022-12-08T14:41:06.579Z,4.90
2022-12-08T14:43:34.049Z,4.90
2022-12-08T14:46:03.926Z,4.80
2022-12-08T14:48:31.450Z,4.70
2022-12-08T14:51:17.027Z,4.70
2022-12-08T14:53:59.117Z,4.60
2022-12-08T14:56:41.294Z,4.60
2022-12-08T14:59:15.127Z,4.50
2022-12-08T15:01:44.166Z,4.50
2022-12-08T15:04:16.890Z,4.40
2022-12-08T15:06:50.632Z,4.30
2022-12-08T15:09:29.087Z,4.30
2022-12-08T15:12:14.069Z,4.20
2022-12-08T15:14:44.080Z,4.20
2022-12-08T15:17:44.905Z,4.10
2022-12-08T15:20:42.679Z,4.10
2022-12-08T15:23:26.829Z,4.00
2022-12-08T15:25:55.543Z,4.00
2022-12-08T15:28:29.705Z,3.90
2022-12-08T15:30:58.652Z,3.80
2022-12-08T15:33:26.578Z,3.80
2022-12-08T15:35:54.168Z,3.70
2022-12-08T15:38:25.102Z,3.70
2022-12-08T15:40:53.374Z,3.70
2022-12-08T15:43:21.606Z,3.60
2022-12-08T15:45:59.097Z,3.60
2022-12-08T15:48:28.975Z,3.60
2022-12-08T15:50:56.738Z,3.70
2022-12-08T15:53:25.720Z,3.60
2022-12-08T15:56:25.922Z,3.60
2022-12-08T15:58:56.903Z,3.60
2022-12-08T16:01:25.751Z,3.50
2022-12-08T16:07:20.349Z,3.30
2022-12-08T16:09:39.345Z,3.30
2022-12-08T16:18:23.372Z,3.20
2022-12-08T16:21:12.352Z,3.20
2022-12-08T16:23:45.539Z,3.10
2022-12-08T16:29:07.846Z,3.10
2022-12-08T16:31:35.353Z,3.00
2022-12-08T16:34:02.596Z,2.90
2022-12-08T16:36:29.747Z,2.90
2022-12-08T16:38:56.937Z,2.80
2022-12-08T16:41:44.462Z,2.90
2022-12-08T16:44:11.638Z,2.80
2022-12-08T16:46:39.250Z,2.80
2022-12-08T16:49:09.053Z,2.80
2022-12-08T16:51:36.564Z,2.70
2022-12-08T16:54:03.754Z,2.70
2022-12-08T16:56:33.382Z,2.70
2022-12-08T16:59:02.071Z,2.70
2022-12-08T17:01:29.930Z,2.70
2022-12-08T17:06:44.590Z,2.60
2022-12-08T17:09:11.797Z,2.60
2022-12-08T17:11:42.876Z,2.60
2022-12-08T17:14:15.046Z,2.50
2022-12-08T17:16:43.615Z,2.50
2022-12-08T17:19:12.642Z,2.50
2022-12-08T17:21:39.790Z,2.60
2022-12-08T17:24:07.764Z,2.60
2022-12-08T17:26:35.466Z,2.50
2022-12-08T17:29:03.780Z,2.50
2022-12-08T17:31:33.062Z,2.40
2022-12-08T17:34:02.962Z,2.40
2022-12-08T17:36:30.450Z,2.40
2022-12-08T17:39:00.476Z,2.40
2022-12-08T17:41:28.714Z,2.40
2022-12-08T17:43:56.271Z,2.30
2022-12-08T17:46:24.647Z,2.30
2022-12-08T17:48:52.648Z,2.30
2022-12-08T17:51:20.888Z,2.30
2022-12-08T17:53:48.090Z,2.30
2022-12-08T17:56:20.371Z,2.30
2022-12-08T17:58:52.897Z,2.30
2022-12-08T18:01:22.365Z,2.30
2022-12-08T18:03:49.822Z,2.20
2022-12-08T18:06:17.760Z,2.20
2022-12-08T18:08:45.149Z,2.10
2022-12-08T18:11:21.855Z,2.10
2022-12-08T18:13:50.860Z,2.10
2022-12-08T18:16:19.792Z,2.00
2022-12-08T18:18:47.698Z,2.00
2022-12-08T18:21:21.455Z,1.90
2022-12-08T18:23:50.692Z,1.90
2022-12-08T18:26:17.941Z,1.90
2022-12-08T18:28:45.143Z,1.90
2022-12-08T18:31:15.836Z,1.90
2022-12-08T18:33:44.748Z,1.90
2022-12-08T18:36:17.000Z,2.00
2022-12-08T18:38:46.696Z,2.00
2022-12-08T18:41:18.669Z,2.00
2022-12-08T18:43:46.254Z,2.00
2022-12-08T18:46:15.091Z,1.90
2022-12-08T18:48:47.756Z,1.90
2022-12-08T18:51:24.402Z,1.90
2022-12-08T18:53:55.976Z,1.90
2022-12-08T18:56:31.253Z,1.90
2022-12-08T18:59:03.519Z,1.80
2022-12-08T19:01:32.476Z,1.80
2022-12-08T19:04:27.263Z,1.80
2022-12-08T19:06:53.098Z,1.80
2022-12-08T19:09:20.802Z,1.80
2022-12-08T19:11:49.146Z,1.70
2022-12-08T19:14:16.408Z,1.70
2022-12-08T19:16:44.814Z,1.70
2022-12-08T19:19:12.729Z,1.70
2022-12-08T19:21:45.934Z,1.60
2022-12-08T19:24:14.031Z,1.60
2022-12-08T19:26:42.613Z,1.60
2022-12-08T19:29:13.151Z,1.60
2022-12-08T19:31:44.666Z,1.60
2022-12-08T19:34:14.902Z,1.60
2022-12-08T19:36:43.116Z,1.60
2022-12-08T19:39:42.580Z,1.50
2022-12-08T19:42:38.068Z,1.50
2022-12-08T19:45:14.331Z,1.50
2022-12-08T19:47:41.871Z,1.50
2022-12-08T19:50:32.850Z,1.50
2022-12-08T19:53:00.313Z,1.50
2022-12-08T19:55:27.552Z,1.50
2022-12-08T19:57:54.999Z,1.50
2022-12-08T20:00:22.254Z,1.50
2022-12-08T20:02:49.964Z,1.50
2022-12-08T20:05:17.086Z,1.50
2022-12-08T20:07:44.348Z,1.50
2022-12-08T20:10:24.562Z,1.50
2022-12-08T20:12:51.551Z,1.50
2022-12-08T20:15:19.336Z,1.50
2022-12-08T20:17:46.783Z,1.50
2022-12-08T20:20:14.646Z,1.50
2022-12-08T20:22:42.662Z,1.50
2022-12-08T20:25:13.044Z,1.50
2022-12-08T20:27:41.154Z,1.50
2022-12-08T20:30:15.015Z,1.40
2022-12-08T20:32:44.209Z,1.40
2022-12-08T20:35:11.214Z,1.40
2022-12-08T20:37:38.373Z,1.40
2022-12-08T20:40:06.485Z,1.40
2022-12-08T20:42:33.482Z,1.30
2022-12-08T20:45:00.695Z,1.30
2022-12-08T20:47:27.749Z,1.30
2022-12-08T20:49:55.194Z,1.30
2022-12-08T20:52:22.858Z,1.30
2022-12-08T20:54:50.199Z,1.30
2022-12-08T20:57:18.077Z,1.20
2022-12-08T20:59:45.535Z,1.30
2022-12-08T21:02:12.629Z,1.20
2022-12-08T21:04:39.885Z,1.20
2022-12-08T21:07:08.907Z,1.20
2022-12-08T21:09:37.261Z,1.20
2022-12-08T21:12:05.292Z,1.10
2022-12-08T21:14:32.641Z,1.10
2022-12-08T21:16:59.980Z,1.00
2022-12-08T21:19:27.467Z,1.00
2022-12-08T21:21:54.791Z,1.00
2022-12-08T21:24:22.226Z,1.00
2022-12-08T21:26:49.303Z,1.10
2022-12-08T21:29:17.689Z,1.10
2022-12-08T21:31:44.997Z,1.20
2022-12-08T21:34:12.452Z,1.30
2022-12-08T21:36:40.904Z,1.40
2022-12-08T21:39:13.066Z,1.50
2022-12-08T21:41:59.074Z,1.50
2022-12-08T21:44:26.488Z,1.60
2022-12-08T21:46:53.905Z,1.60
2022-12-08T21:49:21.107Z,1.60
2022-12-08T21:51:49.098Z,1.60
2022-12-08T21:54:19.261Z,1.60
2022-12-08T21:56:48.660Z,1.60
2022-12-08T21:59:17.019Z,1.60
2022-12-08T22:01:44.811Z,1.60
2022-12-08T22:04:15.947Z,1.50
2022-12-08T22:06:44.537Z,1.50
2022-12-08T22:09:14.159Z,1.50
2022-12-08T22:11:42.091Z,1.50
2022-12-08T22:14:14.485Z,1.50
2022-12-08T22:16:43.703Z,1.40
2022-12-08T22:19:12.069Z,1.50
2022-12-08T22:21:39.554Z,1.40
2022-12-08T22:24:07.114Z,1.50
2022-12-08T22:26:34.415Z,1.40
2022-12-08T22:29:01.791Z,1.40
2022-12-08T22:31:29.494Z,1.40
2022-12-08T22:33:59.184Z,1.40
2022-12-08T22:36:29.350Z,1.40
2022-12-08T22:38:57.143Z,1.40
2022-12-08T22:41:24.485Z,1.40
2022-12-08T22:43:51.756Z,1.40
2022-12-08T22:46:25.678Z,1.30
2022-12-08T22:48:54.168Z,1.30
2022-12-08T22:51:22.990Z,1.20
2022-12-08T22:53:50.436Z,1.30
2022-12-08T22:56:18.728Z,1.20
2022-12-08T22:58:46.127Z,1.20
2022-12-08T23:01:31.242Z,1.20
2022-12-08T23:04:00.141Z,1.20
2022-12-08T23:06:28.968Z,1.10
2022-12-08T23:08:56.596Z,1.10
2022-12-08T23:11:26.375Z,1.00
2022-12-08T23:13:53.648Z,1.00
2022-12-08T23:16:20.865Z,1.00
2022-12-08T23:18:48.006Z,1.00
2022-12-08T23:21:18.127Z,0.90
2022-12-08T23:23:45.699Z,0.90
2022-12-08T23:26:18.567Z,0.90
2022-12-08T23:28:46.150Z,0.90
2022-12-08T23:31:15.255Z,0.90
2022-12-08T23:33:42.842Z,0.90
2022-12-08T23:36:11.754Z,0.90
2022-12-08T23:38:39.380Z,0.90
2022-12-08T23:41:08.638Z,0.90
2022-12-08T23:43:36.097Z,0.90
2022-12-08T23:46:04.648Z,0.80
2022-12-08T23:48:35.019Z,0.80
2022-12-08T23:51:02.251Z,0.90
2022-12-08T23:53:30.589Z,0.90
2022-12-08T23:56:10.114Z,0.90
2022-12-08T23:58:38.035Z,0.80
